createdAt,value
2023-01-30T00:03:26.036Z,70.80
2023-01-30T00:08:29.915Z,70.90
2023-01-30T00:13:35.616Z,70.80
2023-01-30T00:18:41.059Z,70.90
2023-01-30T00:23:45.770Z,70.80
2023-01-30T00:28:51.199Z,70.90
2023-01-30T00:33:54.951Z,70.80
2023-01-30T00:39:00.551Z,70.80
2023-01-30T00:44:23.050Z,70.80
2023-01-30T00:49:26.800Z,70.90
2023-01-30T00:54:30.522Z,70.90
2023-01-30T00:59:36.875Z,70.80
2023-01-30T01:04:43.447Z,70.80
2023-01-30T01:09:48.090Z,70.80
2023-01-30T01:14:53.246Z,70.80
2023-01-30T01:19:57.014Z,71.00
2023-01-30T01:25:00.662Z,70.80
2023-01-30T01:30:07.095Z,70.80
2023-01-30T01:35:12.144Z,70.80
2023-01-30T01:40:41.003Z,70.80
2023-01-30T01:45:47.064Z,70.90
2023-01-30T01:50:56.705Z,70.80
2023-01-30T01:56:02.262Z,70.90
2023-01-30T02:01:08.841Z,70.90
2023-01-30T02:06:15.897Z,70.90
2023-01-30T02:11:28.214Z,70.80
2023-01-30T02:16:33.599Z,70.90
2023-01-30T02:22:28.874Z,70.80
2023-01-30T02:28:12.641Z,70.80
2023-01-30T02:33:25.717Z,70.90
2023-01-30T02:38:41.075Z,70.90
2023-01-30T02:43:56.325Z,70.90
2023-01-30T02:49:09.698Z,70.90
2023-01-30T02:54:16.941Z,70.90
2023-01-30T02:59:29.775Z,70.90
2023-01-30T03:05:10.057Z,70.80
2023-01-30T03:10:28.357Z,70.80
2023-01-30T03:15:43.755Z,70.80
2023-01-30T03:20:49.377Z,70.90
2023-01-30T03:25:53.151Z,70.90
2023-01-30T03:30:57.036Z,70.80
2023-01-30T03:36:02.310Z,70.90
2023-01-30T03:41:07.003Z,70.80
2023-01-30T03:46:11.465Z,70.80
2023-01-30T03:51:17.710Z,70.80
2023-01-30T03:56:21.564Z,70.80
2023-01-30T04:01:26.176Z,70.80
2023-01-30T04:06:31.458Z,70.80
2023-01-30T04:11:35.895Z,70.80
2023-01-30T04:16:39.903Z,70.80
2023-01-30T04:22:23.224Z,70.80
2023-01-30T04:27:27.143Z,70.80
2023-01-30T04:32:49.147Z,70.80
2023-01-30T04:37:54.296Z,70.80
2023-01-30T04:42:58.105Z,70.80
2023-01-30T04:48:18.071Z,70.80
2023-01-30T04:53:25.223Z,70.80
2023-01-30T04:58:29.127Z,70.80
2023-01-30T05:03:32.892Z,70.80
2023-01-30T05:08:38.089Z,70.80
2023-01-30T05:13:46.465Z,70.80
2023-01-30T05:18:50.763Z,70.90
2023-01-30T05:23:56.638Z,70.90
2023-01-30T05:29:00.453Z,70.90
2023-01-30T05:34:04.118Z,70.90
2023-01-30T05:39:09.272Z,70.90
2023-01-30T05:44:13.025Z,70.90
2023-01-30T05:49:17.126Z,70.90
2023-01-30T05:54:22.174Z,70.90
2023-01-30T05:59:25.803Z,71.00
2023-01-30T06:04:29.671Z,70.90
2023-01-30T06:09:34.738Z,70.90
2023-01-30T06:14:38.402Z,70.90
2023-01-30T06:19:42.392Z,71.70
2023-01-30T06:24:47.547Z,70.90
2023-01-30T06:29:51.173Z,70.90
2023-01-30T06:34:54.870Z,70.90
2023-01-30T06:39:59.907Z,71.00
2023-01-30T06:45:03.823Z,70.90
2023-01-30T06:50:08.075Z,71.10
2023-01-30T06:55:17.522Z,70.90
2023-01-30T07:00:23.150Z,71.00
2023-01-30T07:05:28.919Z,71.00
2023-01-30T07:10:35.480Z,71.10
2023-01-30T07:15:39.450Z,71.00
2023-01-30T07:20:43.368Z,71.00
2023-01-30T07:25:48.473Z,71.00
2023-01-30T07:30:52.936Z,71.00
2023-01-30T07:35:57.528Z,71.00
2023-01-30T07:41:02.585Z,71.00
2023-01-30T07:46:06.820Z,71.10
2023-01-30T07:51:10.508Z,71.10
2023-01-30T07:56:18.659Z,71.10
2023-01-30T08:01:22.431Z,71.10
2023-01-30T08:06:26.284Z,71.10
2023-01-30T08:11:31.377Z,71.10
2023-01-30T08:16:35.250Z,71.10
2023-01-30T08:21:38.927Z,71.10
2023-01-30T08:26:44.055Z,71.10
2023-01-30T08:31:49.775Z,71.10
2023-01-30T08:36:53.713Z,71.90
2023-01-30T08:41:58.817Z,71.10
2023-01-30T08:47:02.530Z,71.10
2023-01-30T08:52:06.277Z,71.10
2023-01-30T08:57:11.519Z,71.10
2023-01-30T09:02:15.498Z,71.10
2023-01-30T09:07:19.263Z,71.20
2023-01-30T09:12:24.505Z,71.20
2023-01-30T09:17:28.267Z,71.20
2023-01-30T09:22:32.105Z,71.10
2023-01-30T09:27:37.633Z,71.20
2023-01-30T09:32:41.258Z,71.10
2023-01-30T09:37:51.776Z,71.10
2023-01-30T09:43:35.233Z,71.10
2023-01-30T09:48:49.360Z,71.10
2023-01-30T09:54:18.195Z,71.10
2023-01-30T09:59:33.777Z,71.10
2023-01-30T10:04:51.680Z,71.10
2023-01-30T10:10:15.448Z,71.10
2023-01-30T10:15:49.118Z,71.00
2023-01-30T10:21:05.727Z,71.10
2023-01-30T10:26:14.116Z,71.00
2023-01-30T10:31:23.888Z,71.10
2023-01-30T10:36:40.944Z,71.00
2023-01-30T10:41:56.801Z,71.00
2023-01-30T10:47:46.620Z,70.90
2023-01-30T10:53:01.344Z,70.90
2023-01-30T10:58:18.192Z,70.90
2023-01-30T11:03:34.739Z,70.80
2023-01-30T11:08:38.594Z,70.90
2023-01-30T11:13:42.226Z,70.90
2023-01-30T11:19:22.632Z,70.70
2023-01-30T11:24:19.933Z,70.70
2023-01-30T11:29:31.336Z,70.70
2023-01-30T11:34:36.439Z,70.80
2023-01-30T11:39:50.133Z,70.70
2023-01-30T11:45:15.550Z,70.70
2023-01-30T11:50:26.967Z,70.60
2023-01-30T11:55:49.943Z,70.60
2023-01-30T12:01:05.459Z,70.70
2023-01-30T12:06:10.578Z,70.60
2023-01-30T12:11:42.367Z,71.30
2023-01-30T12:17:01.606Z,70.60
2023-01-30T12:22:24.358Z,70.50
2023-01-30T12:27:50.206Z,70.50
2023-01-30T12:38:28.476Z,70.40
2023-01-30T12:43:59.692Z,70.50
2023-01-30T12:49:40.193Z,70.50
2023-01-30T12:54:58.327Z,70.50
2023-01-30T13:00:19.053Z,70.40
2023-01-30T13:05:36.879Z,70.30
2023-01-30T13:10:51.902Z,70.30
2023-01-30T13:16:07.061Z,70.10
2023-01-30T13:21:20.697Z,70.20
2023-01-30T13:26:34.448Z,70.10
2023-01-30T13:31:43.399Z,70.10
2023-01-30T13:36:53.728Z,70.10
2023-01-30T13:42:01.116Z,70.10
2023-01-30T13:47:26.315Z,70.10
2023-01-30T13:52:37.947Z,70.10
2023-01-30T13:57:56.164Z,70.10
2023-01-30T14:03:29.153Z,70.70
2023-01-30T14:08:48.170Z,70.10
2023-01-30T14:13:55.829Z,69.90
2023-01-30T14:18:59.601Z,70.00
2023-01-30T14:24:06.629Z,69.90
2023-01-30T14:29:11.781Z,69.80
2023-01-30T14:35:03.742Z,69.90
2023-01-30T14:40:39.940Z,69.80
2023-01-30T14:45:51.485Z,69.80
2023-01-30T14:51:23.158Z,69.80
2023-01-30T14:56:49.493Z,69.80
2023-01-30T15:02:25.577Z,69.80
2023-01-30T15:07:33.992Z,70.00
2023-01-30T15:13:07.328Z,70.00
2023-01-30T15:18:39.869Z,69.80
2023-01-30T15:24:17.839Z,69.80
2023-01-30T15:30:17.952Z,69.80
2023-01-30T15:35:30.171Z,69.90
2023-01-30T15:40:34.248Z,70.00
2023-01-30T15:45:53.336Z,70.00
2023-01-30T15:51:01.095Z,70.10
2023-01-30T15:56:10.428Z,70.10
2023-01-30T16:01:21.787Z,70.10
2023-01-30T16:06:33.782Z,70.10
2023-01-30T16:11:41.116Z,70.10
2023-01-30T16:16:50.291Z,70.20
2023-01-30T16:22:00.198Z,70.30
2023-01-30T16:27:08.703Z,70.30
2023-01-30T16:32:15.297Z,70.30
2023-01-30T16:37:31.869Z,70.30
2023-01-30T16:42:35.777Z,70.30
2023-01-30T16:47:40.124Z,70.30
2023-01-30T16:52:51.844Z,70.50
2023-01-30T16:57:59.611Z,70.50
2023-01-30T17:03:07.507Z,70.50
2023-01-30T17:08:49.404Z,70.50
2023-01-30T17:14:22.548Z,70.50
2023-01-30T17:19:26.269Z,70.60
2023-01-30T17:24:31.583Z,70.60
2023-01-30T17:29:42.891Z,70.60
2023-01-30T17:34:47.147Z,70.60
2023-01-30T17:39:52.362Z,71.30
2023-01-30T17:44:56.165Z,70.60
2023-01-30T17:49:59.920Z,70.60
2023-01-30T17:55:05.552Z,70.60
2023-01-30T18:00:18.124Z,70.70
2023-01-30T18:05:23.249Z,70.60
2023-01-30T18:10:28.933Z,70.70
2023-01-30T18:15:32.689Z,70.80
2023-01-30T18:20:36.432Z,70.70
2023-01-30T18:25:41.586Z,70.80
2023-01-30T18:30:45.385Z,70.80
2023-01-30T18:35:49.101Z,70.80
2023-01-30T18:40:54.222Z,70.90
2023-01-30T18:46:06.550Z,70.90
2023-01-30T18:51:14.766Z,71.00
2023-01-30T18:56:22.718Z,70.90
2023-01-30T19:01:28.960Z,71.00
2023-01-30T19:06:33.257Z,71.00
2023-01-30T19:11:55.679Z,71.00
2023-01-30T19:16:59.414Z,71.00
2023-01-30T19:22:03.313Z,71.00
2023-01-30T19:27:09.927Z,71.00
2023-01-30T19:32:13.683Z,71.00
2023-01-30T19:37:17.342Z,71.00
2023-01-30T19:42:22.420Z,71.00
2023-01-30T19:47:26.045Z,71.00
2023-01-30T19:52:29.740Z,71.00
2023-01-30T19:57:35.854Z,71.10
2023-01-30T20:02:39.630Z,71.10
2023-01-30T20:07:44.842Z,71.10
2023-01-30T20:12:50.319Z,71.10
2023-01-30T20:17:54.100Z,71.10
2023-01-30T20:22:57.809Z,71.10
2023-01-30T20:28:03.156Z,71.10
2023-01-30T20:33:07.027Z,71.20
2023-01-30T20:38:10.988Z,71.20
2023-01-30T20:43:17.626Z,71.20
2023-01-30T20:48:21.443Z,71.20
2023-01-30T20:53:25.272Z,71.20
2023-01-30T20:58:31.544Z,71.20
2023-01-30T21:03:35.336Z,71.20
2023-01-30T21:08:40.523Z,71.20
2023-01-30T21:13:46.064Z,71.30
2023-01-30T21:18:53.562Z,71.30
2023-01-30T21:24:08.499Z,72.10
2023-01-30T21:29:16.426Z,71.40
2023-01-30T21:34:20.295Z,71.30
2023-01-30T21:39:41.506Z,71.40
2023-01-30T21:44:46.756Z,71.40
2023-01-30T21:49:55.012Z,71.30
2023-01-30T21:54:58.991Z,71.40
2023-01-30T22:00:04.337Z,71.40
2023-01-30T22:05:11.010Z,71.40
2023-01-30T22:10:14.637Z,71.50
2023-01-30T22:15:20.799Z,71.60
2023-01-30T22:20:24.717Z,71.60
2023-01-30T22:25:28.419Z,71.60
2023-01-30T22:30:33.525Z,71.50
2023-01-30T22:35:37.340Z,71.50
2023-01-30T22:40:40.971Z,71.60
2023-01-30T22:45:46.175Z,71.50
2023-01-30T22:51:01.354Z,71.60
2023-01-30T22:56:22.433Z,71.60
2023-01-30T23:01:37.301Z,71.60
2023-01-30T23:06:41.974Z,71.60
2023-01-30T23:12:10.023Z,71.60
2023-01-30T23:17:32.691Z,71.60
2023-01-30T23:22:36.756Z,71.60
2023-01-30T23:27:40.389Z,71.60
2023-01-30T23:32:45.542Z,71.60
2023-01-30T23:38:06.690Z,71.60
2023-01-30T23:43:11.737Z,71.60
2023-01-30T23:48:16.935Z,71.60
2023-01-30T23:53:20.691Z,71.60
2023-01-30T23:58:24.404Z,71.60
